Drayton Plains, Michigan
Current Conditions -  °F | °C
As of 7:53 PM on Tuesday 21 Oct 2014 (Local Time) from KPTK Reporting Station
Overcast Overcast  
Wind Chill: 37°   Ceiling: 2100
Heat Index: 43°   Visibility: 10mi
Dew Point: 35°   Wind: 12mph
Humidity: 74%   Direction: 360°N
Pressure: 30.16"   Gusts: NA
Location:  42.68°N, 83.38°W
Report Text: KPTK 212353Z 36010KT 10SM OVC021 06/02 A3016 RMK AO2 SLP219 T00610017 10072 20061 51019
Loading
Personal Weather Stations






























Interactive Weather Map
Tropical Storm Tracking
New forecast layout! Learn more

10-Day Weather Forecast

Advertisements
Track Severe Weather on mobile